San Antonio, Texas
Traffic Map
Current Weather Conditions
San Antonio, Texas
Clear
Clear
26°
Feels Like: 28°
Wind Chill: 26° Ceiling: Unl
Heat Index: 28° Visibility: 10mi
Dew Point: 23° Wind: 8mph
Humidity: 81% Direction: 130° (SE)
Pressure: 29.99in Gusts: 0mph
Raw Report DataKSKF 310658Z AUTO 13007KT 10SM CLR 26/23 A2999 RMK AO2 SLP147 T02610227 $
Traffic Incident Summary
Active as of:
Severity:
Category:
InformationThere was an issue retrieving the traffic information for this location. Please try a different location or try again shortly.
Advertisements
Track Severe Weather on mobile